sensor_id;sensor_type;location;lat;lon;timestamp;pressure;altitude;pressure_sealevel;temperature;humidity
13047;BME280;6590;42.660;27.712;2022-07-18T00:02:05;70697.75;;;23.79;100.00
13047;BME280;6590;42.660;27.712;2022-07-18T00:04:32;70721.72;;;23.97;100.00
13047;BME280;6590;42.660;27.712;2022-07-18T00:07:01;70695.41;;;23.77;100.00
13047;BME280;6590;42.660;27.712;2022-07-18T00:09:28;70694.06;;;23.80;100.00
13047;BME280;6590;42.660;27.712;2022-07-18T00:11:55;70697.63;;;23.83;100.00
13047;BME280;6590;42.660;27.712;2022-07-18T00:14:22;70696.66;;;23.85;100.00
13047;BME280;6590;42.660;27.712;2022-07-18T00:16:49;70705.63;;;23.88;100.00
13047;BME280;6590;42.660;27.712;2022-07-18T00:19:17;70698.19;;;23.84;100.00
13047;BME280;6590;42.660;27.712;2022-07-18T00:21:44;70690.16;;;23.79;100.00
13047;BME280;6590;42.660;27.712;2022-07-18T00:24:12;70713.91;;;23.95;100.00
13047;BME280;6590;42.660;27.712;2022-07-18T00:26:39;70697.38;;;23.81;100.00
13047;BME280;6590;42.660;27.712;2022-07-18T00:29:06;70687.50;;;23.68;100.00
13047;BME280;6590;42.660;27.712;2022-07-18T00:31:33;70665.19;;;23.56;100.00
13047;BME280;6590;42.660;27.712;2022-07-18T00:34:00;70662.63;;;23.51;100.00
13047;BME280;6590;42.660;27.712;2022-07-18T00:36:28;70675.59;;;23.62;100.00
13047;BME280;6590;42.660;27.712;2022-07-18T00:38:56;70675.59;;;23.62;100.00
13047;BME280;6590;42.660;27.712;2022-07-18T00:41:25;70685.00;;;23.70;100.00
13047;BME280;6590;42.660;27.712;2022-07-18T00:43:52;70659.88;;;23.51;100.00
13047;BME280;6590;42.660;27.712;2022-07-18T00:46:21;70664.03;;;23.55;100.00
13047;BME280;6590;42.660;27.712;2022-07-18T00:48:48;70666.53;;;23.52;100.00
13047;BME280;6590;42.660;27.712;2022-07-18T00:51:16;70649.88;;;23.43;100.00
13047;BME280;6590;42.660;27.712;2022-07-18T00:53:43;70652.84;;;23.45;100.00
13047;BME280;6590;42.660;27.712;2022-07-18T00:56:11;70659.28;;;23.51;100.00
13047;BME280;6590;42.660;27.712;2022-07-18T00:58:40;70668.13;;;23.58;100.00
13047;BME280;6590;42.660;27.712;2022-07-18T01:01:09;70655.19;;;23.47;100.00
13047;BME280;6590;42.660;27.712;2022-07-18T01:03:53;70651.06;;;23.44;100.00
13047;BME280;6590;42.660;27.712;2022-07-18T01:06:21;70632.56;;;23.26;100.00
13047;BME280;6590;42.660;27.712;2022-07-18T01:08:48;70616.44;;;23.10;100.00
13047;BME280;6590;42.660;27.712;2022-07-18T01:11:15;70632.00;;;23.25;100.00
13047;BME280;6590;42.660;27.712;2022-07-18T01:13:43;70636.72;;;23.29;100.00
13047;BME280;6590;42.660;27.712;2022-07-18T01:16:10;70628.81;;;23.20;100.00
13047;BME280;6590;42.660;27.712;2022-07-18T01:18:37;70635.97;;;23.33;100.00
13047;BME280;6590;42.660;27.712;2022-07-18T01:21:05;70656.50;;;23.44;100.00
13047;BME280;6590;42.660;27.712;2022-07-18T01:23:32;70656.38;;;23.48;100.00
13047;BME280;6590;42.660;27.712;2022-07-18T01:25:59;70657.53;;;23.49;100.00
13047;BME280;6590;42.660;27.712;2022-07-18T01:28:26;70643.19;;;23.35;100.00
13047;BME280;6590;42.660;27.712;2022-07-18T01:30:53;70625.50;;;23.20;100.00
13047;BME280;6590;42.660;27.712;2022-07-18T01:33:20;70635.97;;;23.33;100.00
13047;BME280;6590;42.660;27.712;2022-07-18T01:35:47;70661.81;;;23.48;100.00
13047;BME280;6590;42.660;27.712;2022-07-18T01:38:15;70624.34;;;23.19;100.00
13047;BME280;6590;42.660;27.712;2022-07-18T01:40:44;70620.78;;;23.16;100.00
13047;BME280;6590;42.660;27.712;2022-07-18T01:43:11;70602.50;;;23.00;100.00
13047;BME280;6590;42.660;27.712;2022-07-18T01:45:38;70605.47;;;23.03;100.00
13047;BME280;6590;42.660;27.712;2022-07-18T01:48:05;70618.56;;;23.09;100.00
13047;BME280;6590;42.660;27.712;2022-07-18T01:50:32;70664.97;;;23.53;100.00
13047;BME280;6590;42.660;27.712;2022-07-18T01:52:59;70695.25;;;23.81;100.00
13047;BME280;6590;42.660;27.712;2022-07-18T01:55:27;70725.69;;;24.04;100.00
13047;BME280;6590;42.660;27.712;2022-07-18T01:57:54;70740.63;;;24.19;100.00
13047;BME280;6590;42.660;27.712;2022-07-18T02:00:21;70728.25;;;24.09;100.00
13047;BME280;6590;42.660;27.712;2022-07-18T02:02:48;70731.59;;;24.09;100.00
13047;BME280;6590;42.660;27.712;2022-07-18T02:05:14;70733.34;;;24.11;100.00
13047;BME280;6590;42.660;27.712;2022-07-18T02:07:42;70751.47;;;24.31;100.00
13047;BME280;6590;42.660;27.712;2022-07-18T02:10:12;70757.91;;;24.29;100.00
13047;BME280;6590;42.660;27.712;2022-07-18T02:12:40;70738.88;;;24.18;100.00
13047;BME280;6590;42.660;27.712;2022-07-18T02:15:10;70741.44;;;24.22;100.00
13047;BME280;6590;42.660;27.712;2022-07-18T02:17:37;70765.19;;;24.38;100.00
13047;BME280;6590;42.660;27.712;2022-07-18T02:20:07;70785.25;;;24.55;100.00
13047;BME280;6590;42.660;27.712;2022-07-18T02:22:34;70769.53;;;24.44;100.00
13047;BME280;6590;42.660;27.712;2022-07-18T02:25:01;70744.78;;;24.23;100.00
13047;BME280;6590;42.660;27.712;2022-07-18T02:27:28;70767.75;;;24.42;100.00
13047;BME280;6590;42.660;27.712;2022-07-18T02:29:57;70722.16;;;24.01;100.00
13047;BME280;6590;42.660;27.712;2022-07-18T02:32:24;70736.50;;;24.16;100.00
13047;BME280;6590;42.660;27.712;2022-07-18T02:34:51;70746.31;;;24.22;100.00
13047;BME280;6590;42.660;27.712;2022-07-18T02:37:19;70730.41;;;24.08;100.00
13047;BME280;6590;42.660;27.712;2022-07-18T02:39:46;70764.00;;;24.37;100.00
13047;BME280;6590;42.660;27.712;2022-07-18T02:42:13;70751.63;;;24.26;100.00
13047;BME280;6590;42.660;27.712;2022-07-18T02:44:40;70734.75;;;24.14;100.00
13047;BME280;6590;42.660;27.712;2022-07-18T02:47:08;70766.38;;;24.39;100.00
13047;BME280;6590;42.660;27.712;2022-07-18T02:49:35;70729.22;;;24.07;100.00
13047;BME280;6590;42.660;27.712;2022-07-18T02:52:07;70715.44;;;23.94;100.00
13047;BME280;6590;42.660;27.712;2022-07-18T02:54:36;70720.16;;;23.98;100.00
13047;BME280;6590;42.660;27.712;2022-07-18T02:57:04;70755.38;;;24.32;100.00
13047;BME280;6590;42.660;27.712;2022-07-18T02:59:31;70726.28;;;24.05;100.00
13047;BME280;6590;42.660;27.712;2022-07-18T03:01:58;70726.66;;;24.03;100.00
13047;BME280;6590;42.660;27.712;2022-07-18T03:04:27;70721.78;;;24.03;100.00
13047;BME280;6590;42.660;27.712;2022-07-18T03:06:54;70720.97;;;24.00;100.00
13047;BME280;6590;42.660;27.712;2022-07-18T03:09:21;70732.38;;;24.12;100.00
13047;BME280;6590;42.660;27.712;2022-07-18T03:11:48;70728.25;;;24.09;100.00
13047;BME280;6590;42.660;27.712;2022-07-18T03:14:15;70732.53;;;24.08;100.00
13047;BME280;6590;42.660;27.712;2022-07-18T03:16:42;70726.84;;;24.05;100.00
13047;BME280;6590;42.660;27.712;2022-07-18T03:19:09;70755.16;;;24.29;100.00
13047;BME280;6590;42.660;27.712;2022-07-18T03:21:38;70731.97;;;24.07;100.00
13047;BME280;6590;42.660;27.712;2022-07-18T03:24:05;70731.78;;;24.12;100.00
13047;BME280;6590;42.660;27.712;2022-07-18T03:26:32;70759.28;;;24.33;100.00
13047;BME280;6590;42.660;27.712;2022-07-18T03:28:59;70746.91;;;24.22;100.00
13047;BME280;6590;42.660;27.712;2022-07-18T03:31:26;70724.78;;;24.13;100.00
13047;BME280;6590;42.660;27.712;2022-07-18T03:33:53;70730.41;;;24.08;100.00
13047;BME280;6590;42.660;27.712;2022-07-18T03:36:20;70761.66;;;24.35;100.00
13047;BME280;6590;42.660;27.712;2022-07-18T03:38:48;70746.31;;;24.22;100.00
13047;BME280;6590;42.660;27.712;2022-07-18T03:41:15;70739.69;;;24.21;100.00
13047;BME280;6590;42.660;27.712;2022-07-18T03:43:42;70730.69;;;24.18;100.00
13047;BME280;6590;42.660;27.712;2022-07-18T03:46:09;70735.31;;;24.15;100.00
13047;BME280;6590;42.660;27.712;2022-07-18T03:48:36;70752.81;;;24.27;100.00
13047;BME280;6590;42.660;27.712;2022-07-18T03:51:03;70754.19;;;24.31;100.00
13047;BME280;6590;42.660;27.712;2022-07-18T03:53:30;70722.94;;;24.04;100.00
13047;BME280;6590;42.660;27.712;2022-07-18T03:56:00;70761.47;;;24.39;100.00
13047;BME280;6590;42.660;27.712;2022-07-18T03:58:27;70785.25;;;24.55;100.00
13047;BME280;6590;42.660;27.712;2022-07-18T04:00:55;70755.38;;;24.32;100.00
13047;BME280;6590;42.660;27.712;2022-07-18T04:03:22;70756.78;;;24.35;100.00
13047;BME280;6590;42.660;27.712;2022-07-18T04:05:50;70759.50;;;24.35;100.00
13047;BME280;6590;42.660;27.712;2022-07-18T04:08:17;70749.63;;;24.22;100.00
13047;BME280;6590;42.660;27.712;2022-07-18T04:10:44;70724.22;;;24.12;100.00
13047;BME280;6590;42.660;27.712;2022-07-18T04:13:12;70755.00;;;24.34;100.00
13047;BME280;6590;42.660;27.712;2022-07-18T04:15:40;70754.00;;;24.28;100.00
13047;BME280;6590;42.660;27.712;2022-07-18T04:18:07;70744.78;;;24.23;100.00
13047;BME280;6590;42.660;27.712;2022-07-18T04:20:38;70740.63;;;24.19;100.00
13047;BME280;6590;42.660;27.712;2022-07-18T04:23:06;70776.38;;;24.47;100.00
13047;BME280;6590;42.660;27.712;2022-07-18T04:25:34;70762.22;;;24.35;100.00
13047;BME280;6590;42.660;27.712;2022-07-18T04:28:02;70805.66;;;24.70;100.00
13047;BME280;6590;42.660;27.712;2022-07-18T04:30:31;70803.38;;;24.75;100.00
13047;BME280;6590;42.660;27.712;2022-07-18T04:33:01;70814.50;;;24.77;100.00
13047;BME280;6590;42.660;27.712;2022-07-18T04:35:28;70834.78;;;24.97;100.00
13047;BME280;6590;42.660;27.712;2022-07-18T04:37:55;70799.03;;;24.69;100.00
13047;BME280;6590;42.660;27.712;2022-07-18T04:40:22;70805.88;;;24.72;100.00
13047;BME280;6590;42.660;27.712;2022-07-18T04:42:49;70827.34;;;24.93;100.00
13047;BME280;6590;42.660;27.712;2022-07-18T04:45:16;70810.59;;;24.76;100.00
13047;BME280;6590;42.660;27.712;2022-07-18T04:47:48;70825.34;;;24.89;100.00
13047;BME280;6590;42.660;27.712;2022-07-18T04:50:16;70813.56;;;24.79;100.00
13047;BME280;6590;42.660;27.712;2022-07-18T04:52:44;70837.16;;;24.99;100.00
13047;BME280;6590;42.660;27.712;2022-07-18T04:55:13;70840.91;;;25.04;99.55
13047;BME280;6590;42.660;27.712;2022-07-18T04:57:40;70841.84;;;25.03;98.59
13047;BME280;6590;42.660;27.712;2022-07-18T05:00:10;70823.59;;;24.87;98.93
13047;BME280;6590;42.660;27.712;2022-07-18T05:02:39;70837.38;;;25.01;98.74
13047;BME280;6590;42.660;27.712;2022-07-18T05:05:11;70812.00;;;24.80;96.82
13047;BME280;6590;42.660;27.712;2022-07-18T05:07:39;70812.75;;;24.76;96.40
13047;BME280;6590;42.660;27.712;2022-07-18T05:10:07;70819.66;;;24.86;96.04
13047;BME280;6590;42.660;27.712;2022-07-18T05:12:34;70817.53;;;24.87;94.11
13047;BME280;6590;42.660;27.712;2022-07-18T05:15:04;70828.28;;;24.91;95.54
13047;BME280;6590;42.660;27.712;2022-07-18T05:17:31;70864.69;;;25.20;91.71
13047;BME280;6590;42.660;27.712;2022-07-18T05:19:59;70853.88;;;25.15;87.65
13047;BME280;6590;42.660;27.712;2022-07-18T05:22:27;70868.66;;;25.28;86.50
13047;BME280;6590;42.660;27.712;2022-07-18T05:24:54;70887.53;;;25.44;84.41
13047;BME280;6590;42.660;27.712;2022-07-18T05:27:21;70899.94;;;25.54;82.15
13047;BME280;6590;42.660;27.712;2022-07-18T05:29:48;70908.19;;;25.61;79.21
13047;BME280;6590;42.660;27.712;2022-07-18T05:32:15;70938.69;;;25.85;79.88
13047;BME280;6590;42.660;27.712;2022-07-18T05:34:41;70985.31;;;26.24;75.48
13047;BME280;6590;42.660;27.712;2022-07-18T05:37:09;71025.13;;;26.60;73.54
13047;BME280;6590;42.660;27.712;2022-07-18T05:39:38;71036.34;;;26.69;70.69
13047;BME280;6590;42.660;27.712;2022-07-18T05:42:05;71054.66;;;26.85;70.50
13047;BME280;6590;42.660;27.712;2022-07-18T05:44:32;71069.66;;;27.00;68.79
13047;BME280;6590;42.660;27.712;2022-07-18T05:46:59;71050.91;;;26.79;69.66
13047;BME280;6590;42.660;27.712;2022-07-18T05:49:26;71020.03;;;26.58;69.42
13047;BME280;6590;42.660;27.712;2022-07-18T05:51:53;70970.19;;;26.13;73.77
13047;BME280;6590;42.660;27.712;2022-07-18T05:54:21;70962.50;;;26.07;74.18
13047;BME280;6590;42.660;27.712;2022-07-18T05:56:52;70941.31;;;25.96;75.60
13047;BME280;6590;42.660;27.712;2022-07-18T05:59:20;70946.94;;;25.92;77.26
13047;BME280;6590;42.660;27.712;2022-07-18T06:01:48;70976.09;;;26.18;75.89
13047;BME280;6590;42.660;27.712;2022-07-18T06:04:15;70942.44;;;25.90;74.61
13047;BME280;6590;42.660;27.712;2022-07-18T06:06:42;71012.78;;;26.56;73.98
13047;BME280;6590;42.660;27.712;2022-07-18T06:09:10;70993.78;;;26.33;73.01
13047;BME280;6590;42.660;27.712;2022-07-18T06:11:38;70950.72;;;25.97;72.13
13047;BME280;6590;42.660;27.712;2022-07-18T06:14:06;70935.34;;;25.84;72.96
13047;BME280;6590;42.660;27.712;2022-07-18T06:16:34;70937.72;;;25.86;72.68
13047;BME280;6590;42.660;27.712;2022-07-18T06:19:02;70902.66;;;25.54;74.42
13047;BME280;6590;42.660;27.712;2022-07-18T06:21:29;70934.53;;;25.81;72.52
13047;BME280;6590;42.660;27.712;2022-07-18T06:23:56;70923.75;;;25.77;72.53
13047;BME280;6590;42.660;27.712;2022-07-18T06:26:23;70932.63;;;25.84;72.84
13047;BME280;6590;42.660;27.712;2022-07-18T06:28:50;70990.84;;;26.31;69.73
13047;BME280;6590;42.660;27.712;2022-07-18T06:31:18;70986.50;;;26.25;67.43
13047;BME280;6590;42.660;27.712;2022-07-18T06:33:45;70985.00;;;26.33;68.31
13047;BME280;6590;42.660;27.712;2022-07-18T06:36:12;70992.03;;;26.32;67.37
13047;BME280;6590;42.660;27.712;2022-07-18T06:38:39;70963.09;;;26.07;68.67
13047;BME280;6590;42.660;27.712;2022-07-18T06:41:07;70925.91;;;25.76;70.10
13047;BME280;6590;42.660;27.712;2022-07-18T06:43:36;70896.81;;;25.56;71.08
13047;BME280;6590;42.660;27.712;2022-07-18T06:46:03;70893.44;;;25.49;70.96
13047;BME280;6590;42.660;27.712;2022-07-18T06:48:31;70879.31;;;25.44;70.51
13047;BME280;6590;42.660;27.712;2022-07-18T06:51:00;70922.94;;;25.74;70.34
13047;BME280;6590;42.660;27.712;2022-07-18T06:53:27;70901.50;;;25.53;71.93
13047;BME280;6590;42.660;27.712;2022-07-18T06:55:55;70907.38;;;25.58;70.08
13047;BME280;6590;42.660;27.712;2022-07-18T06:58:22;70982.41;;;26.28;69.44
13047;BME280;6590;42.660;27.712;2022-07-18T07:00:49;70983.81;;;26.32;66.92
13047;BME280;6590;42.660;27.712;2022-07-18T07:03:16;71003.47;;;26.44;66.11
13047;BME280;6590;42.660;27.712;2022-07-18T07:05:51;70983.41;;;26.27;63.80
13047;BME280;6590;42.660;27.712;2022-07-18T07:08:18;70958.38;;;26.03;63.70
13047;BME280;6590;42.660;27.712;2022-07-18T07:10:45;70936.31;;;25.83;65.42
13047;BME280;6590;42.660;27.712;2022-07-18T07:13:12;70970.97;;;26.16;65.15
13047;BME280;6590;42.660;27.712;2022-07-18T07:15:41;70976.47;;;26.16;63.89
13047;BME280;6590;42.660;27.712;2022-07-18T07:18:11;70978.66;;;26.23;63.82
13047;BME280;6590;42.660;27.712;2022-07-18T07:20:38;70975.50;;;26.18;62.87
13047;BME280;6590;42.660;27.712;2022-07-18T07:23:06;70965.09;;;26.11;62.35
13047;BME280;6590;42.660;27.712;2022-07-18T07:25:36;70990.06;;;26.28;63.08
13047;BME280;6590;42.660;27.712;2022-07-18T07:28:03;70968.63;;;26.14;61.12
13047;BME280;6590;42.660;27.712;2022-07-18T07:30:31;70960.38;;;26.07;60.56
13047;BME280;6590;42.660;27.712;2022-07-18T07:32:58;70975.88;;;26.16;60.55
13047;BME280;6590;42.660;27.712;2022-07-18T07:35:25;70975.28;;;26.15;61.95
13047;BME280;6590;42.660;27.712;2022-07-18T07:37:54;70987.09;;;26.25;61.51
13047;BME280;6590;42.660;27.712;2022-07-18T07:40:24;70991.22;;;26.29;61.03
13047;BME280;6590;42.660;27.712;2022-07-18T07:42:51;70990.06;;;26.28;59.20
13047;BME280;6590;42.660;27.712;2022-07-18T07:45:21;70993.22;;;26.33;61.45
13047;BME280;6590;42.660;27.712;2022-07-18T07:47:48;70991.66;;;26.34;61.18
13047;BME280;6590;42.660;27.712;2022-07-18T07:50:18;71000.91;;;26.39;60.29
13047;BME280;6590;42.660;27.712;2022-07-18T07:52:48;70978.47;;;26.20;61.52
13047;BME280;6590;42.660;27.712;2022-07-18T07:55:16;70989.47;;;26.27;59.12
13047;BME280;6590;42.660;27.712;2022-07-18T07:57:47;70996.75;;;26.36;58.12
13047;BME280;6590;42.660;27.712;2022-07-18T08:00:14;70985.75;;;26.29;59.44
13047;BME280;6590;42.660;27.712;2022-07-18T08:02:52;70990.25;;;26.30;60.31
13047;BME280;6590;42.660;27.712;2022-07-18T08:05:20;71004.06;;;26.44;58.67
13047;BME280;6590;42.660;27.712;2022-07-18T08:07:47;70987.53;;;26.30;60.23
13047;BME280;6590;42.660;27.712;2022-07-18T08:10:14;70937.94;;;25.89;62.47
13047;BME280;6590;42.660;27.712;2022-07-18T08:12:41;70978.47;;;26.20;61.92
13047;BME280;6590;42.660;27.712;2022-07-18T08:15:10;70989.69;;;26.30;60.88
13047;BME280;6590;42.660;27.712;2022-07-18T08:17:37;70977.47;;;26.22;59.38
13047;BME280;6590;42.660;27.712;2022-07-18T08:20:05;70977.84;;;26.20;59.98
13047;BME280;6590;42.660;27.712;2022-07-18T08:22:32;70953.88;;;26.02;57.93
13047;BME280;6590;42.660;27.712;2022-07-18T08:25:00;70973.72;;;26.16;57.34
13047;BME280;6590;42.660;27.712;2022-07-18T08:27:28;70987.53;;;26.30;57.33
13047;BME280;6590;42.660;27.712;2022-07-18T08:29:55;70995.56;;;26.35;59.06
13047;BME280;6590;42.660;27.712;2022-07-18T08:32:23;70994.19;;;26.31;58.72
13047;BME280;6590;42.660;27.712;2022-07-18T08:34:50;71007.03;;;26.47;59.29
13047;BME280;6590;42.660;27.712;2022-07-18T08:37:18;71004.06;;;26.44;58.70
13047;BME280;6590;42.660;27.712;2022-07-18T08:39:46;71020.41;;;26.56;58.14
13047;BME280;6590;42.660;27.712;2022-07-18T08:42:14;71021.97;;;26.55;59.18
13047;BME280;6590;42.660;27.712;2022-07-18T08:44:44;71033.78;;;26.65;59.57
13047;BME280;6590;42.660;27.712;2022-07-18T08:47:10;71040.47;;;26.73;57.61
13047;BME280;6590;42.660;27.712;2022-07-18T08:49:40;71021.19;;;26.59;56.80
13047;BME280;6590;42.660;27.712;2022-07-18T08:52:07;71012.34;;;26.51;55.27
13047;BME280;6590;42.660;27.712;2022-07-18T08:54:35;70998.59;;;26.44;56.36
13047;BME280;6590;42.660;27.712;2022-07-18T08:57:03;70994.41;;;26.34;55.62
13047;BME280;6590;42.660;27.712;2022-07-18T08:59:30;70989.06;;;26.29;57.20
13047;BME280;6590;42.660;27.712;2022-07-18T09:01:57;71018.63;;;26.54;56.46
13047;BME280;6590;42.660;27.712;2022-07-18T09:04:34;71020.03;;;26.58;55.10
13047;BME280;6590;42.660;27.712;2022-07-18T09:07:04;71017.09;;;26.55;56.16
13047;BME280;6590;42.660;27.712;2022-07-18T09:09:31;71025.13;;;26.60;55.77
13047;BME280;6590;42.660;27.712;2022-07-18T09:12:00;71036.34;;;26.69;56.21
13047;BME280;6590;42.660;27.712;2022-07-18T09:14:36;71047.63;;;26.86;56.26
13047;BME280;6590;42.660;27.712;2022-07-18T09:17:06;71046.75;;;26.76;52.38
13047;BME280;6590;42.660;27.712;2022-07-18T09:19:34;71040.09;;;26.75;52.73
13047;BME280;6590;42.660;27.712;2022-07-18T09:22:14;71060.78;;;26.92;52.64
13047;BME280;6590;42.660;27.712;2022-07-18T09:25:00;71062.72;;;26.89;51.08
13047;BME280;6590;42.660;27.712;2022-07-18T09:27:30;71048.16;;;26.79;50.73
13047;BME280;6590;42.660;27.712;2022-07-18T09:30:15;71044.03;;;26.76;51.12
13047;BME280;6590;42.660;27.712;2022-07-18T09:32:44;71067.88;;;26.98;50.97
13047;BME280;6590;42.660;27.712;2022-07-18T09:35:13;71066.09;;;26.97;49.30
13047;BME280;6590;42.660;27.712;2022-07-18T09:37:55;71099.00;;;27.22;49.85
13047;BME280;6590;42.660;27.712;2022-07-18T09:40:24;71099.78;;;27.25;48.96
13047;BME280;6590;42.660;27.712;2022-07-18T09:42:52;71112.00;;;27.33;47.33
13047;BME280;6590;42.660;27.712;2022-07-18T09:45:28;71134.47;;;27.52;47.95
13047;BME280;6590;42.660;27.712;2022-07-18T09:47:57;71139.19;;;27.56;48.64
13047;BME280;6590;42.660;27.712;2022-07-18T09:50:27;71144.91;;;27.59;48.53
13047;BME280;6590;42.660;27.712;2022-07-18T09:53:14;71111.41;;;27.33;50.22
13047;BME280;6590;42.660;27.712;2022-07-18T09:55:44;71115.53;;;27.36;50.71
13047;BME280;6590;42.660;27.712;2022-07-18T09:58:11;71140.75;;;27.55;50.36
13047;BME280;6590;42.660;27.712;2022-07-18T10:00:41;71103.19;;;27.33;52.31
13047;BME280;6590;42.660;27.712;2022-07-18T10:03:08;71066.69;;;26.97;51.50
13047;BME280;6590;42.660;27.712;2022-07-18T10:05:37;71053.09;;;26.86;52.38
13047;BME280;6590;42.660;27.712;2022-07-18T10:25:05;71021.66;;;26.64;53.60
13047;BME280;6590;42.660;27.712;2022-07-18T10:27:48;71047.38;;;26.76;51.88
13047;BME280;6590;42.660;27.712;2022-07-18T10:30:32;71040.88;;;26.71;52.26
13047;BME280;6590;42.660;27.712;2022-07-18T10:33:00;71046.00;;;26.80;52.92
13047;BME280;6590;42.660;27.712;2022-07-18T10:35:59;71050.53;;;26.81;51.82
13047;BME280;6590;42.660;27.712;2022-07-18T10:38:27;71045.19;;;26.77;52.12
13047;BME280;6590;42.660;27.712;2022-07-18T10:41:19;71065.91;;;26.94;51.96
13047;BME280;6590;42.660;27.712;2022-07-18T10:43:46;71074.38;;;27.04;52.76
13047;BME280;6590;42.660;27.712;2022-07-18T10:46:13;71073.19;;;27.03;50.47
13047;BME280;6590;42.660;27.712;2022-07-18T10:48:54;71070.63;;;26.98;52.43
13047;BME280;6590;42.660;27.712;2022-07-18T10:51:29;71065.28;;;26.94;53.17
13047;BME280;6590;42.660;27.712;2022-07-18T10:54:08;71047.00;;;26.78;56.67
13047;BME280;6590;42.660;27.712;2022-07-18T10:57:11;71053.69;;;26.86;56.54
13047;BME280;6590;42.660;27.712;2022-07-18T10:59:39;71048.75;;;26.80;56.58
13047;BME280;6590;42.660;27.712;2022-07-18T11:02:36;71049.59;;;26.90;54.74
13047;BME280;6590;42.660;27.712;2022-07-18T11:05:33;71069.44;;;26.97;53.21
13047;BME280;6590;42.660;27.712;2022-07-18T11:08:16;71062.94;;;26.92;51.20
13047;BME280;6590;42.660;27.712;2022-07-18T11:11:06;71058.00;;;26.85;53.89
13047;BME280;6590;42.660;27.712;2022-07-18T11:13:35;71030.81;;;26.62;54.19
13047;BME280;6590;42.660;27.712;2022-07-18T11:16:05;71018.03;;;26.54;53.15
13047;BME280;6590;42.660;27.712;2022-07-18T11:21:35;70987.22;;;26.39;55.44
13047;BME280;6590;42.660;27.712;2022-07-18T11:24:04;71006.41;;;26.46;56.33
13047;BME280;6590;42.660;27.712;2022-07-18T11:26:33;71007.75;;;26.43;56.91
13047;BME280;6590;42.660;27.712;2022-07-18T11:29:03;71017.09;;;26.55;57.80
13047;BME280;6590;42.660;27.712;2022-07-18T11:31:32;71032.41;;;26.68;55.75
13047;BME280;6590;42.660;27.712;2022-07-18T11:34:00;71060.59;;;26.97;54.18
13047;BME280;6590;42.660;27.712;2022-07-18T11:36:29;71067.06;;;26.95;53.22
13047;BME280;6590;42.660;27.712;2022-07-18T11:38:58;71062.34;;;26.91;54.83
13047;BME280;6590;42.660;27.712;2022-07-18T11:41:26;71071.94;;;26.95;55.28
13047;BME280;6590;42.660;27.712;2022-07-18T11:43:55;71047.56;;;26.79;54.67
13047;BME280;6590;42.660;27.712;2022-07-18T11:46:25;71052.84;;;26.76;56.24
13047;BME280;6590;42.660;27.712;2022-07-18T11:48:58;71049.34;;;26.80;55.87
13047;BME280;6590;42.660;27.712;2022-07-18T11:51:43;71038.50;;;26.69;52.95
13047;BME280;6590;42.660;27.712;2022-07-18T11:54:11;71021.00;;;26.56;51.98
13047;BME280;6590;42.660;27.712;2022-07-18T11:56:46;71013.31;;;26.50;53.33
13047;BME280;6590;42.660;27.712;2022-07-18T11:59:14;71032.59;;;26.64;54.06
13047;BME280;6590;42.660;27.712;2022-07-18T12:01:43;71015.69;;;26.52;53.79
13047;BME280;6590;42.660;27.712;2022-07-18T12:04:23;70977.84;;;26.20;53.44
13047;BME280;6590;42.660;27.712;2022-07-18T12:07:16;70975.28;;;26.15;53.93
13047;BME280;6590;42.660;27.712;2022-07-18T12:09:46;70943.84;;;25.93;55.41
13047;BME280;6590;42.660;27.712;2022-07-18T12:12:16;70988.88;;;26.27;56.51
13047;BME280;6590;42.660;27.712;2022-07-18T12:14:43;70971.53;;;26.10;56.81
13047;BME280;6590;42.660;27.712;2022-07-18T12:17:21;70946.56;;;25.93;57.11
13047;BME280;6590;42.660;27.712;2022-07-18T12:19:49;70951.28;;;25.97;55.73
13047;BME280;6590;42.660;27.712;2022-07-18T12:22:19;70950.72;;;25.97;56.54
13047;BME280;6590;42.660;27.712;2022-07-18T12:24:54;70965.69;;;26.12;55.46
13047;BME280;6590;42.660;27.712;2022-07-18T12:27:23;70974.69;;;26.15;56.44
13047;BME280;6590;42.660;27.712;2022-07-18T12:30:05;70998.91;;;26.35;55.29
13047;BME280;6590;42.660;27.712;2022-07-18T12:32:42;70979.03;;;26.21;55.56
13047;BME280;6590;42.660;27.712;2022-07-18T12:35:11;70968.81;;;26.10;57.23
13047;BME280;6590;42.660;27.712;2022-07-18T12:37:39;70953.06;;;25.99;57.42
13047;BME280;6590;42.660;27.712;2022-07-18T12:40:08;70988.28;;;26.26;56.42
13047;BME280;6590;42.660;27.712;2022-07-18T12:42:38;70983.41;;;26.27;54.41
13047;BME280;6590;42.660;27.712;2022-07-18T12:45:06;70991.81;;;26.29;55.86
13047;BME280;6590;42.660;27.712;2022-07-18T12:47:34;71024.91;;;26.57;56.07
13047;BME280;6590;42.660;27.712;2022-07-18T12:50:06;71022.38;;;26.60;54.81
13047;BME280;6590;42.660;27.712;2022-07-18T12:52:34;71003.84;;;26.42;54.68
13047;BME280;6590;42.660;27.712;2022-07-18T12:55:01;71007.19;;;26.42;54.51
13047;BME280;6590;42.660;27.712;2022-07-18T12:57:28;71011.53;;;26.48;54.22
13047;BME280;6590;42.660;27.712;2022-07-18T12:59:55;71004.06;;;26.44;54.02
13047;BME280;6590;42.660;27.712;2022-07-18T13:02:22;71025.94;;;26.63;54.98
13047;BME280;6590;42.660;27.712;2022-07-18T13:04:49;71025.19;;;26.67;53.56
13047;BME280;6590;42.660;27.712;2022-07-18T13:07:18;71036.16;;;26.67;54.42
13047;BME280;6590;42.660;27.712;2022-07-18T13:09:45;71010.34;;;26.47;55.09
13047;BME280;6590;42.660;27.712;2022-07-18T13:12:12;71057.78;;;26.83;55.25
13047;BME280;6590;42.660;27.712;2022-07-18T13:14:39;71046.19;;;26.75;53.94
13047;BME280;6590;42.660;27.712;2022-07-18T13:17:06;71064.13;;;26.93;53.18
13047;BME280;6590;42.660;27.712;2022-07-18T13:19:33;71038.50;;;26.69;52.24
13047;BME280;6590;42.660;27.712;2022-07-18T13:22:05;71039.31;;;26.72;53.26
13047;BME280;6590;42.660;27.712;2022-07-18T13:24:38;71045.19;;;26.77;52.68
13047;BME280;6590;42.660;27.712;2022-07-18T13:27:08;71004.13;;;26.51;52.78
13047;BME280;6590;42.660;27.712;2022-07-18T13:29:35;71001.28;;;26.37;53.47